sensor_id;sensor_type;location;lat;lon;timestamp;P1;durP1;ratioP1;P2;durP2;ratioP2
55186;SDS011;55457;52.002;5.464;2024-01-30T00:01:52;5.15;;;3.03;;
55186;SDS011;55457;52.002;5.464;2024-01-30T00:04:17;7.50;;;3.25;;
55186;SDS011;55457;52.002;5.464;2024-01-30T00:06:43;3.92;;;2.92;;
55186;SDS011;55457;52.002;5.464;2024-01-30T00:09:09;5.70;;;2.80;;
55186;SDS011;55457;52.002;5.464;2024-01-30T00:11:35;4.10;;;3.10;;
55186;SDS011;55457;52.002;5.464;2024-01-30T00:14:01;4.28;;;2.63;;
55186;SDS011;55457;52.002;5.464;2024-01-30T00:16:28;3.97;;;2.70;;
55186;SDS011;55457;52.002;5.464;2024-01-30T00:18:53;8.88;;;3.63;;
55186;SDS011;55457;52.002;5.464;2024-01-30T00:21:19;6.25;;;2.92;;
55186;SDS011;55457;52.002;5.464;2024-01-30T00:23:45;6.05;;;2.88;;
55186;SDS011;55457;52.002;5.464;2024-01-30T00:26:10;6.22;;;3.13;;
55186;SDS011;55457;52.002;5.464;2024-01-30T00:28:36;4.18;;;3.17;;
55186;SDS011;55457;52.002;5.464;2024-01-30T00:31:02;4.53;;;2.97;;
55186;SDS011;55457;52.002;5.464;2024-01-30T00:33:28;4.32;;;2.88;;
55186;SDS011;55457;52.002;5.464;2024-01-30T00:35:53;4.63;;;3.10;;
55186;SDS011;55457;52.002;5.464;2024-01-30T00:38:18;2.97;;;2.38;;
55186;SDS011;55457;52.002;5.464;2024-01-30T00:40:43;7.45;;;3.28;;
55186;SDS011;55457;52.002;5.464;2024-01-30T00:43:09;5.03;;;3.38;;
55186;SDS011;55457;52.002;5.464;2024-01-30T00:45:34;6.00;;;3.50;;
55186;SDS011;55457;52.002;5.464;2024-01-30T00:47:59;5.63;;;3.10;;
55186;SDS011;55457;52.002;5.464;2024-01-30T00:50:25;4.40;;;2.70;;
55186;SDS011;55457;52.002;5.464;2024-01-30T00:52:50;4.53;;;2.80;;
55186;SDS011;55457;52.002;5.464;2024-01-30T00:55:16;7.95;;;3.17;;
55186;SDS011;55457;52.002;5.464;2024-01-30T00:57:41;3.60;;;2.70;;
55186;SDS011;55457;52.002;5.464;2024-01-30T01:00:07;3.22;;;2.92;;
55186;SDS011;55457;52.002;5.464;2024-01-30T01:02:34;6.20;;;2.70;;
55186;SDS011;55457;52.002;5.464;2024-01-30T01:05:00;4.28;;;2.67;;
55186;SDS011;55457;52.002;5.464;2024-01-30T01:07:25;3.38;;;2.60;;
55186;SDS011;55457;52.002;5.464;2024-01-30T01:09:50;6.63;;;2.78;;
55186;SDS011;55457;52.002;5.464;2024-01-30T01:12:15;6.45;;;2.70;;
55186;SDS011;55457;52.002;5.464;2024-01-30T01:14:41;4.90;;;3.08;;
55186;SDS011;55457;52.002;5.464;2024-01-30T01:17:07;4.15;;;2.53;;
55186;SDS011;55457;52.002;5.464;2024-01-30T01:19:32;4.40;;;3.10;;
55186;SDS011;55457;52.002;5.464;2024-01-30T01:21:57;3.05;;;2.28;;
55186;SDS011;55457;52.002;5.464;2024-01-30T01:24:23;5.40;;;2.65;;
55186;SDS011;55457;52.002;5.464;2024-01-30T01:26:48;3.13;;;2.38;;
55186;SDS011;55457;52.002;5.464;2024-01-30T01:29:13;4.28;;;2.97;;
55186;SDS011;55457;52.002;5.464;2024-01-30T01:31:40;5.63;;;2.85;;
55186;SDS011;55457;52.002;5.464;2024-01-30T01:34:11;3.63;;;2.38;;
55186;SDS011;55457;52.002;5.464;2024-01-30T01:36:37;6.03;;;3.55;;
55186;SDS011;55457;52.002;5.464;2024-01-30T01:39:03;4.35;;;2.95;;
55186;SDS011;55457;52.002;5.464;2024-01-30T01:41:32;4.82;;;3.10;;
55186;SDS011;55457;52.002;5.464;2024-01-30T01:43:58;4.65;;;2.58;;
55186;SDS011;55457;52.002;5.464;2024-01-30T01:46:27;3.17;;;2.45;;
55186;SDS011;55457;52.002;5.464;2024-01-30T01:48:55;4.43;;;2.90;;
55186;SDS011;55457;52.002;5.464;2024-01-30T01:51:21;4.63;;;2.45;;
55186;SDS011;55457;52.002;5.464;2024-01-30T01:53:48;6.70;;;3.00;;
55186;SDS011;55457;52.002;5.464;2024-01-30T01:56:13;6.25;;;2.53;;
55186;SDS011;55457;52.002;5.464;2024-01-30T01:58:39;5.90;;;3.40;;
55186;SDS011;55457;52.002;5.464;2024-01-30T02:01:06;5.90;;;3.63;;
55186;SDS011;55457;52.002;5.464;2024-01-30T02:03:33;5.15;;;2.60;;
55186;SDS011;55457;52.002;5.464;2024-01-30T02:05:59;5.57;;;3.10;;
55186;SDS011;55457;52.002;5.464;2024-01-30T02:08:24;3.55;;;2.75;;
55186;SDS011;55457;52.002;5.464;2024-01-30T02:10:50;8.40;;;3.50;;
55186;SDS011;55457;52.002;5.464;2024-01-30T02:13:16;3.38;;;2.40;;
55186;SDS011;55457;52.002;5.464;2024-01-30T02:15:41;3.90;;;2.95;;
55186;SDS011;55457;52.002;5.464;2024-01-30T02:18:07;4.80;;;2.60;;
55186;SDS011;55457;52.002;5.464;2024-01-30T02:20:32;3.97;;;2.58;;
55186;SDS011;55457;52.002;5.464;2024-01-30T02:23:00;5.72;;;3.08;;
55186;SDS011;55457;52.002;5.464;2024-01-30T02:25:30;6.28;;;2.67;;
55186;SDS011;55457;52.002;5.464;2024-01-30T02:28:02;3.90;;;2.60;;
55186;SDS011;55457;52.002;5.464;2024-01-30T02:30:27;5.57;;;3.10;;
55186;SDS011;55457;52.002;5.464;2024-01-30T02:32:52;3.90;;;2.53;;
55186;SDS011;55457;52.002;5.464;2024-01-30T02:35:18;4.28;;;2.67;;
55186;SDS011;55457;52.002;5.464;2024-01-30T02:37:43;6.00;;;3.47;;
55186;SDS011;55457;52.002;5.464;2024-01-30T02:40:08;7.78;;;3.10;;
55186;SDS011;55457;52.002;5.464;2024-01-30T02:42:34;3.83;;;2.90;;
55186;SDS011;55457;52.002;5.464;2024-01-30T02:44:59;6.40;;;2.92;;
55186;SDS011;55457;52.002;5.464;2024-01-30T02:47:25;4.43;;;2.83;;
55186;SDS011;55457;52.002;5.464;2024-01-30T02:49:50;5.90;;;2.75;;
55186;SDS011;55457;52.002;5.464;2024-01-30T02:52:15;6.78;;;2.65;;
55186;SDS011;55457;52.002;5.464;2024-01-30T02:54:41;9.25;;;3.08;;
55186;SDS011;55457;52.002;5.464;2024-01-30T02:57:06;3.33;;;3.00;;
55186;SDS011;55457;52.002;5.464;2024-01-30T02:59:31;4.85;;;2.88;;
55186;SDS011;55457;52.002;5.464;2024-01-30T03:02:00;4.30;;;2.80;;
55186;SDS011;55457;52.002;5.464;2024-01-30T03:04:26;5.10;;;2.60;;
55186;SDS011;55457;52.002;5.464;2024-01-30T03:06:51;3.50;;;2.65;;
55186;SDS011;55457;52.002;5.464;2024-01-30T03:09:16;4.85;;;2.45;;
55186;SDS011;55457;52.002;5.464;2024-01-30T03:11:42;6.55;;;2.85;;
55186;SDS011;55457;52.002;5.464;2024-01-30T03:14:08;6.15;;;2.95;;
55186;SDS011;55457;52.002;5.464;2024-01-30T03:16:36;4.40;;;3.20;;
55186;SDS011;55457;52.002;5.464;2024-01-30T03:19:02;2.55;;;2.22;;
55186;SDS011;55457;52.002;5.464;2024-01-30T03:21:28;3.95;;;2.40;;
55186;SDS011;55457;52.002;5.464;2024-01-30T03:23:54;9.27;;;3.00;;
55186;SDS011;55457;52.002;5.464;2024-01-30T03:26:19;4.90;;;2.72;;
55186;SDS011;55457;52.002;5.464;2024-01-30T03:28:44;5.20;;;3.10;;
55186;SDS011;55457;52.002;5.464;2024-01-30T03:31:09;5.07;;;3.08;;
55186;SDS011;55457;52.002;5.464;2024-01-30T03:33:36;5.20;;;3.08;;
55186;SDS011;55457;52.002;5.464;2024-01-30T03:36:04;4.97;;;2.53;;
55186;SDS011;55457;52.002;5.464;2024-01-30T03:38:30;7.85;;;2.97;;
55186;SDS011;55457;52.002;5.464;2024-01-30T03:40:57;5.72;;;3.10;;
55186;SDS011;55457;52.002;5.464;2024-01-30T03:43:23;7.05;;;3.10;;
55186;SDS011;55457;52.002;5.464;2024-01-30T03:45:48;8.15;;;3.28;;
55186;SDS011;55457;52.002;5.464;2024-01-30T03:48:14;4.90;;;2.92;;
55186;SDS011;55457;52.002;5.464;2024-01-30T03:50:39;4.18;;;2.95;;
55186;SDS011;55457;52.002;5.464;2024-01-30T03:53:04;4.35;;;2.90;;
55186;SDS011;55457;52.002;5.464;2024-01-30T03:55:30;5.03;;;3.13;;
55186;SDS011;55457;52.002;5.464;2024-01-30T03:57:55;3.85;;;2.83;;
55186;SDS011;55457;52.002;5.464;2024-01-30T04:00:20;3.85;;;3.13;;
55186;SDS011;55457;52.002;5.464;2024-01-30T04:02:46;5.90;;;2.95;;
55186;SDS011;55457;52.002;5.464;2024-01-30T04:05:11;4.57;;;3.10;;
55186;SDS011;55457;52.002;5.464;2024-01-30T04:07:36;4.43;;;3.50;;
55186;SDS011;55457;52.002;5.464;2024-01-30T04:10:02;7.55;;;2.80;;
55186;SDS011;55457;52.002;5.464;2024-01-30T04:12:30;4.25;;;3.03;;
55186;SDS011;55457;52.002;5.464;2024-01-30T04:14:56;4.65;;;3.58;;
55186;SDS011;55457;52.002;5.464;2024-01-30T04:17:21;4.70;;;2.92;;
55186;SDS011;55457;52.002;5.464;2024-01-30T04:19:47;7.47;;;3.20;;
55186;SDS011;55457;52.002;5.464;2024-01-30T04:22:12;6.43;;;3.13;;
55186;SDS011;55457;52.002;5.464;2024-01-30T04:24:37;7.03;;;2.53;;
55186;SDS011;55457;52.002;5.464;2024-01-30T04:27:03;4.45;;;2.90;;
55186;SDS011;55457;52.002;5.464;2024-01-30T04:29:28;5.25;;;2.92;;
55186;SDS011;55457;52.002;5.464;2024-01-30T04:31:53;3.78;;;2.97;;
55186;SDS011;55457;52.002;5.464;2024-01-30T04:34:19;5.95;;;2.58;;
55186;SDS011;55457;52.002;5.464;2024-01-30T04:36:44;5.72;;;2.88;;
55186;SDS011;55457;52.002;5.464;2024-01-30T04:39:12;3.13;;;2.13;;
55186;SDS011;55457;52.002;5.464;2024-01-30T04:41:38;3.88;;;3.00;;
55186;SDS011;55457;52.002;5.464;2024-01-30T04:44:03;4.15;;;2.42;;
55186;SDS011;55457;52.002;5.464;2024-01-30T04:46:28;5.78;;;2.75;;
55186;SDS011;55457;52.002;5.464;2024-01-30T04:48:54;5.65;;;3.45;;
55186;SDS011;55457;52.002;5.464;2024-01-30T04:51:19;3.92;;;2.40;;
55186;SDS011;55457;52.002;5.464;2024-01-30T04:53:44;3.05;;;2.40;;
55186;SDS011;55457;52.002;5.464;2024-01-30T04:56:10;5.82;;;2.97;;
55186;SDS011;55457;52.002;5.464;2024-01-30T04:58:35;3.78;;;2.75;;
55186;SDS011;55457;52.002;5.464;2024-01-30T05:01:01;3.90;;;2.70;;
55186;SDS011;55457;52.002;5.464;2024-01-30T05:03:27;8.35;;;3.10;;
55186;SDS011;55457;52.002;5.464;2024-01-30T05:05:52;5.95;;;3.00;;
55186;SDS011;55457;52.002;5.464;2024-01-30T05:08:18;3.80;;;2.70;;
55186;SDS011;55457;52.002;5.464;2024-01-30T05:10:43;5.25;;;2.55;;
55186;SDS011;55457;52.002;5.464;2024-01-30T05:13:08;4.00;;;2.72;;
55186;SDS011;55457;52.002;5.464;2024-01-30T05:15:34;7.53;;;2.55;;
55186;SDS011;55457;52.002;5.464;2024-01-30T05:17:59;4.30;;;2.67;;
55186;SDS011;55457;52.002;5.464;2024-01-30T05:20:24;6.45;;;2.90;;
55186;SDS011;55457;52.002;5.464;2024-01-30T05:22:52;6.53;;;2.78;;
55186;SDS011;55457;52.002;5.464;2024-01-30T05:25:18;6.35;;;2.75;;
55186;SDS011;55457;52.002;5.464;2024-01-30T05:27:44;5.25;;;2.40;;
55186;SDS011;55457;52.002;5.464;2024-01-30T05:30:09;5.97;;;3.05;;
55186;SDS011;55457;52.002;5.464;2024-01-30T05:32:35;5.72;;;2.72;;
55186;SDS011;55457;52.002;5.464;2024-01-30T05:35:00;11.93;;;2.53;;
55186;SDS011;55457;52.002;5.464;2024-01-30T05:37:26;4.45;;;2.75;;
55186;SDS011;55457;52.002;5.464;2024-01-30T05:39:51;3.88;;;2.50;;
55186;SDS011;55457;52.002;5.464;2024-01-30T05:42:17;6.75;;;2.80;;
55186;SDS011;55457;52.002;5.464;2024-01-30T05:44:42;2.78;;;2.33;;
55186;SDS011;55457;52.002;5.464;2024-01-30T05:47:07;3.67;;;2.20;;
55186;SDS011;55457;52.002;5.464;2024-01-30T05:49:33;3.53;;;2.95;;
55186;SDS011;55457;52.002;5.464;2024-01-30T05:51:58;4.88;;;2.50;;
55186;SDS011;55457;52.002;5.464;2024-01-30T05:54:23;4.95;;;2.88;;
55186;SDS011;55457;52.002;5.464;2024-01-30T05:56:49;3.58;;;2.75;;
55186;SDS011;55457;52.002;5.464;2024-01-30T05:59:14;7.07;;;2.90;;
55186;SDS011;55457;52.002;5.464;2024-01-30T06:01:48;9.05;;;2.63;;
55186;SDS011;55457;52.002;5.464;2024-01-30T06:04:14;5.70;;;2.67;;
55186;SDS011;55457;52.002;5.464;2024-01-30T06:06:39;3.42;;;2.25;;
55186;SDS011;55457;52.002;5.464;2024-01-30T06:09:05;4.03;;;2.55;;
55186;SDS011;55457;52.002;5.464;2024-01-30T06:11:30;4.07;;;2.60;;
55186;SDS011;55457;52.002;5.464;2024-01-30T06:13:56;2.50;;;2.30;;
55186;SDS011;55457;52.002;5.464;2024-01-30T06:16:21;5.28;;;2.53;;
55186;SDS011;55457;52.002;5.464;2024-01-30T06:18:47;4.10;;;3.08;;
55186;SDS011;55457;52.002;5.464;2024-01-30T06:21:13;4.70;;;2.70;;
55186;SDS011;55457;52.002;5.464;2024-01-30T06:23:38;3.33;;;2.55;;
55186;SDS011;55457;52.002;5.464;2024-01-30T06:26:04;4.80;;;3.17;;
55186;SDS011;55457;52.002;5.464;2024-01-30T06:28:31;3.95;;;2.45;;
55186;SDS011;55457;52.002;5.464;2024-01-30T06:30:56;6.05;;;2.83;;
55186;SDS011;55457;52.002;5.464;2024-01-30T06:33:22;3.97;;;2.60;;
55186;SDS011;55457;52.002;5.464;2024-01-30T06:35:47;3.72;;;2.35;;
55186;SDS011;55457;52.002;5.464;2024-01-30T06:38:13;6.22;;;2.53;;
55186;SDS011;55457;52.002;5.464;2024-01-30T06:40:40;8.57;;;2.47;;
55186;SDS011;55457;52.002;5.464;2024-01-30T06:43:05;5.50;;;2.47;;
55186;SDS011;55457;52.002;5.464;2024-01-30T06:45:32;6.13;;;3.17;;
55186;SDS011;55457;52.002;5.464;2024-01-30T06:47:58;5.20;;;2.40;;
55186;SDS011;55457;52.002;5.464;2024-01-30T06:50:23;3.97;;;2.53;;
55186;SDS011;55457;52.002;5.464;2024-01-30T06:52:48;3.63;;;2.78;;
55186;SDS011;55457;52.002;5.464;2024-01-30T06:55:14;5.00;;;2.30;;
55186;SDS011;55457;52.002;5.464;2024-01-30T06:57:39;3.50;;;2.17;;
55186;SDS011;55457;52.002;5.464;2024-01-30T07:00:05;4.68;;;2.35;;
55186;SDS011;55457;52.002;5.464;2024-01-30T07:02:31;5.85;;;2.53;;
55186;SDS011;55457;52.002;5.464;2024-01-30T07:04:56;6.32;;;2.88;;
55186;SDS011;55457;52.002;5.464;2024-01-30T07:07:21;4.50;;;2.50;;
55186;SDS011;55457;52.002;5.464;2024-01-30T07:09:46;3.72;;;2.60;;
55186;SDS011;55457;52.002;5.464;2024-01-30T07:12:14;8.30;;;3.72;;
55186;SDS011;55457;52.002;5.464;2024-01-30T07:14:40;4.25;;;2.90;;
55186;SDS011;55457;52.002;5.464;2024-01-30T07:17:05;3.80;;;2.58;;
55186;SDS011;55457;52.002;5.464;2024-01-30T07:19:31;4.93;;;2.67;;
55186;SDS011;55457;52.002;5.464;2024-01-30T07:21:56;9.50;;;2.97;;
55186;SDS011;55457;52.002;5.464;2024-01-30T07:24:21;6.85;;;2.80;;
55186;SDS011;55457;52.002;5.464;2024-01-30T07:26:47;9.05;;;4.38;;
55186;SDS011;55457;52.002;5.464;2024-01-30T07:29:12;8.65;;;3.83;;
55186;SDS011;55457;52.002;5.464;2024-01-30T07:31:38;8.45;;;3.70;;
55186;SDS011;55457;52.002;5.464;2024-01-30T07:34:03;8.20;;;3.20;;
55186;SDS011;55457;52.002;5.464;2024-01-30T07:36:28;10.13;;;3.90;;
55186;SDS011;55457;52.002;5.464;2024-01-30T07:38:54;13.45;;;4.22;;
55186;SDS011;55457;52.002;5.464;2024-01-30T07:41:19;26.77;;;5.00;;
55186;SDS011;55457;52.002;5.464;2024-01-30T07:43:45;15.55;;;4.40;;
55186;SDS011;55457;52.002;5.464;2024-01-30T07:46:10;17.27;;;4.60;;
55186;SDS011;55457;52.002;5.464;2024-01-30T07:48:35;14.75;;;4.03;;
55186;SDS011;55457;52.002;5.464;2024-01-30T07:51:01;11.85;;;3.88;;
55186;SDS011;55457;52.002;5.464;2024-01-30T07:53:27;17.30;;;4.05;;
55186;SDS011;55457;52.002;5.464;2024-01-30T07:55:53;12.02;;;3.80;;
55186;SDS011;55457;52.002;5.464;2024-01-30T07:58:18;15.18;;;4.00;;
55186;SDS011;55457;52.002;5.464;2024-01-30T08:00:44;9.85;;;3.25;;
55186;SDS011;55457;52.002;5.464;2024-01-30T08:03:10;12.77;;;3.72;;
55186;SDS011;55457;52.002;5.464;2024-01-30T08:05:35;12.82;;;4.05;;
55186;SDS011;55457;52.002;5.464;2024-01-30T08:08:00;9.20;;;3.55;;
55186;SDS011;55457;52.002;5.464;2024-01-30T08:10:26;8.98;;;3.80;;
55186;SDS011;55457;52.002;5.464;2024-01-30T08:12:51;11.60;;;4.20;;
55186;SDS011;55457;52.002;5.464;2024-01-30T08:15:16;17.92;;;4.78;;
55186;SDS011;55457;52.002;5.464;2024-01-30T08:17:42;11.05;;;4.03;;
55186;SDS011;55457;52.002;5.464;2024-01-30T08:20:07;9.85;;;3.45;;
55186;SDS011;55457;52.002;5.464;2024-01-30T08:22:38;10.88;;;3.55;;
55186;SDS011;55457;52.002;5.464;2024-01-30T08:25:04;9.60;;;3.47;;
55186;SDS011;55457;52.002;5.464;2024-01-30T08:27:30;12.10;;;4.25;;
55186;SDS011;55457;52.002;5.464;2024-01-30T08:29:56;11.95;;;3.72;;
55186;SDS011;55457;52.002;5.464;2024-01-30T08:32:21;5.63;;;3.30;;
55186;SDS011;55457;52.002;5.464;2024-01-30T08:34:46;14.68;;;3.47;;
55186;SDS011;55457;52.002;5.464;2024-01-30T08:37:12;17.67;;;4.40;;
55186;SDS011;55457;52.002;5.464;2024-01-30T08:39:41;9.98;;;3.17;;
55186;SDS011;55457;52.002;5.464;2024-01-30T08:42:06;7.10;;;2.75;;
55186;SDS011;55457;52.002;5.464;2024-01-30T08:44:33;13.07;;;4.82;;
55186;SDS011;55457;52.002;5.464;2024-01-30T08:46:58;6.95;;;2.55;;
55186;SDS011;55457;52.002;5.464;2024-01-30T08:49:23;14.77;;;4.32;;
55186;SDS011;55457;52.002;5.464;2024-01-30T08:51:49;8.13;;;3.33;;
55186;SDS011;55457;52.002;5.464;2024-01-30T08:54:16;7.32;;;3.45;;
55186;SDS011;55457;52.002;5.464;2024-01-30T08:56:42;9.82;;;3.97;;
55186;SDS011;55457;52.002;5.464;2024-01-30T08:59:07;12.10;;;3.00;;
55186;SDS011;55457;52.002;5.464;2024-01-30T09:01:33;5.78;;;3.03;;
55186;SDS011;55457;52.002;5.464;2024-01-30T09:03:58;8.00;;;3.97;;
55186;SDS011;55457;52.002;5.464;2024-01-30T09:06:23;6.85;;;2.80;;
55186;SDS011;55457;52.002;5.464;2024-01-30T09:08:53;7.47;;;3.25;;
55186;SDS011;55457;52.002;5.464;2024-01-30T09:11:18;9.23;;;3.17;;
55186;SDS011;55457;52.002;5.464;2024-01-30T09:13:44;10.52;;;3.10;;
55186;SDS011;55457;52.002;5.464;2024-01-30T09:16:09;6.38;;;3.42;;
55186;SDS011;55457;52.002;5.464;2024-01-30T09:18:35;8.68;;;3.03;;
55186;SDS011;55457;52.002;5.464;2024-01-30T09:21:00;4.35;;;3.15;;
55186;SDS011;55457;52.002;5.464;2024-01-30T09:23:27;7.13;;;3.33;;
55186;SDS011;55457;52.002;5.464;2024-01-30T09:25:53;8.02;;;3.40;;
55186;SDS011;55457;52.002;5.464;2024-01-30T09:28:18;6.40;;;2.63;;
55186;SDS011;55457;52.002;5.464;2024-01-30T09:30:43;7.22;;;3.80;;
55186;SDS011;55457;52.002;5.464;2024-01-30T09:33:09;7.60;;;3.38;;
55186;SDS011;55457;52.002;5.464;2024-01-30T09:35:34;11.52;;;3.63;;
55186;SDS011;55457;52.002;5.464;2024-01-30T09:38:01;6.53;;;3.25;;
55186;SDS011;55457;52.002;5.464;2024-01-30T09:40:27;5.95;;;3.22;;
55186;SDS011;55457;52.002;5.464;2024-01-30T09:42:52;11.80;;;3.47;;
55186;SDS011;55457;52.002;5.464;2024-01-30T09:45:19;5.60;;;3.08;;
55186;SDS011;55457;52.002;5.464;2024-01-30T09:47:45;5.10;;;3.28;;
55186;SDS011;55457;52.002;5.464;2024-01-30T09:50:11;7.15;;;2.70;;
55186;SDS011;55457;52.002;5.464;2024-01-30T09:52:38;5.72;;;3.03;;
55186;SDS011;55457;52.002;5.464;2024-01-30T09:55:04;4.30;;;2.45;;
55186;SDS011;55457;52.002;5.464;2024-01-30T09:57:31;7.88;;;3.05;;
55186;SDS011;55457;52.002;5.464;2024-01-30T09:59:56;4.75;;;2.67;;
55186;SDS011;55457;52.002;5.464;2024-01-30T10:02:22;6.18;;;2.97;;
55186;SDS011;55457;52.002;5.464;2024-01-30T10:04:48;6.78;;;3.42;;
55186;SDS011;55457;52.002;5.464;2024-01-30T10:07:14;5.68;;;3.30;;
55186;SDS011;55457;52.002;5.464;2024-01-30T10:09:40;7.35;;;3.03;;
55186;SDS011;55457;52.002;5.464;2024-01-30T10:12:06;7.47;;;3.50;;
55186;SDS011;55457;52.002;5.464;2024-01-30T10:14:32;7.40;;;3.30;;
55186;SDS011;55457;52.002;5.464;2024-01-30T10:16:58;6.90;;;3.33;;
55186;SDS011;55457;52.002;5.464;2024-01-30T10:19:24;8.13;;;3.25;;
55186;SDS011;55457;52.002;5.464;2024-01-30T10:21:49;5.03;;;3.38;;
55186;SDS011;55457;52.002;5.464;2024-01-30T10:24:15;4.70;;;2.65;;
55186;SDS011;55457;52.002;5.464;2024-01-30T10:26:40;5.25;;;2.72;;
55186;SDS011;55457;52.002;5.464;2024-01-30T10:29:08;6.43;;;3.58;;
55186;SDS011;55457;52.002;5.464;2024-01-30T10:31:33;6.80;;;2.83;;
55186;SDS011;55457;52.002;5.464;2024-01-30T10:33:59;8.05;;;2.88;;
55186;SDS011;55457;52.002;5.464;2024-01-30T10:36:26;5.07;;;2.75;;
55186;SDS011;55457;52.002;5.464;2024-01-30T10:38:55;9.13;;;3.35;;
55186;SDS011;55457;52.002;5.464;2024-01-30T10:41:26;8.80;;;3.17;;
55186;SDS011;55457;52.002;5.464;2024-01-30T10:46:51;7.75;;;3.63;;
55186;SDS011;55457;52.002;5.464;2024-01-30T10:49:25;4.68;;;2.88;;
55186;SDS011;55457;52.002;5.464;2024-01-30T10:51:51;7.82;;;2.83;;
55186;SDS011;55457;52.002;5.464;2024-01-30T10:54:17;6.22;;;2.65;;
55186;SDS011;55457;52.002;5.464;2024-01-30T10:56:44;6.18;;;2.95;;
55186;SDS011;55457;52.002;5.464;2024-01-30T10:59:09;4.78;;;2.63;;
55186;SDS011;55457;52.002;5.464;2024-01-30T11:01:38;4.40;;;2.47;;
55186;SDS011;55457;52.002;5.464;2024-01-30T11:04:04;4.78;;;2.72;;
55186;SDS011;55457;52.002;5.464;2024-01-30T11:06:29;7.25;;;2.58;;
55186;SDS011;55457;52.002;5.464;2024-01-30T11:09:01;4.78;;;2.80;;
55186;SDS011;55457;52.002;5.464;2024-01-30T11:11:29;4.55;;;2.95;;
55186;SDS011;55457;52.002;5.464;2024-01-30T11:13:54;4.55;;;2.72;;
55186;SDS011;55457;52.002;5.464;2024-01-30T11:16:19;7.80;;;3.13;;
55186;SDS011;55457;52.002;5.464;2024-01-30T11:18:49;8.18;;;3.33;;
55186;SDS011;55457;52.002;5.464;2024-01-30T11:21:15;5.90;;;2.83;;
55186;SDS011;55457;52.002;5.464;2024-01-30T11:23:41;5.75;;;2.60;;
55186;SDS011;55457;52.002;5.464;2024-01-30T11:26:07;4.05;;;2.47;;
55186;SDS011;55457;52.002;5.464;2024-01-30T11:28:35;4.00;;;2.42;;
55186;SDS011;55457;52.002;5.464;2024-01-30T11:31:03;4.45;;;2.40;;
55186;SDS011;55457;52.002;5.464;2024-01-30T11:33:32;4.82;;;2.78;;
55186;SDS011;55457;52.002;5.464;2024-01-30T11:35:58;5.07;;;2.28;;
55186;SDS011;55457;52.002;5.464;2024-01-30T11:38:25;4.13;;;2.28;;
55186;SDS011;55457;52.002;5.464;2024-01-30T11:40:52;4.15;;;2.40;;
55186;SDS011;55457;52.002;5.464;2024-01-30T11:43:19;6.28;;;2.38;;
55186;SDS011;55457;52.002;5.464;2024-01-30T11:45:44;4.60;;;2.00;;
55186;SDS011;55457;52.002;5.464;2024-01-30T11:48:11;7.55;;;2.40;;
55186;SDS011;55457;52.002;5.464;2024-01-30T11:50:37;5.95;;;2.70;;
55186;SDS011;55457;52.002;5.464;2024-01-30T11:53:04;5.15;;;2.00;;
55186;SDS011;55457;52.002;5.464;2024-01-30T11:55:30;2.83;;;1.80;;
55186;SDS011;55457;52.002;5.464;2024-01-30T11:57:56;4.63;;;2.10;;
55186;SDS011;55457;52.002;5.464;2024-01-30T12:00:23;3.20;;;2.10;;
55186;SDS011;55457;52.002;5.464;2024-01-30T12:02:49;2.85;;;1.90;;
55186;SDS011;55457;52.002;5.464;2024-01-30T12:05:20;2.47;;;1.88;;
55186;SDS011;55457;52.002;5.464;2024-01-30T12:07:46;4.53;;;2.03;;
55186;SDS011;55457;52.002;5.464;2024-01-30T12:10:12;2.47;;;1.80;;
55186;SDS011;55457;52.002;5.464;2024-01-30T12:12:39;2.70;;;1.67;;
55186;SDS011;55457;52.002;5.464;2024-01-30T12:15:05;4.22;;;2.22;;
55186;SDS011;55457;52.002;5.464;2024-01-30T12:17:32;3.28;;;2.00;;
55186;SDS011;55457;52.002;5.464;2024-01-30T12:20:06;3.08;;;1.70;;
55186;SDS011;55457;52.002;5.464;2024-01-30T12:22:39;2.15;;;1.30;;
55186;SDS011;55457;52.002;5.464;2024-01-30T12:25:09;4.13;;;1.95;;
55186;SDS011;55457;52.002;5.464;2024-01-30T12:27:36;3.17;;;1.90;;
55186;SDS011;55457;52.002;5.464;2024-01-30T12:30:05;2.58;;;1.50;;
55186;SDS011;55457;52.002;5.464;2024-01-30T12:32:34;3.80;;;1.75;;
55186;SDS011;55457;52.002;5.464;2024-01-30T12:37:35;5.00;;;1.95;;
55186;SDS011;55457;52.002;5.464;2024-01-30T12:40:01;3.65;;;1.65;;
55186;SDS011;55457;52.002;5.464;2024-01-30T12:42:27;11.07;;;2.55;;
55186;SDS011;55457;52.002;5.464;2024-01-30T12:44:52;5.68;;;2.10;;
55186;SDS011;55457;52.002;5.464;2024-01-30T12:47:18;5.22;;;1.88;;
55186;SDS011;55457;52.002;5.464;2024-01-30T12:49:46;6.68;;;2.03;;
55186;SDS011;55457;52.002;5.464;2024-01-30T12:52:12;9.95;;;2.35;;
55186;SDS011;55457;52.002;5.464;2024-01-30T12:54:39;5.60;;;2.33;;
55186;SDS011;55457;52.002;5.464;2024-01-30T12:57:05;5.28;;;2.25;;
55186;SDS011;55457;52.002;5.464;2024-01-30T12:59:30;16.33;;;2.40;;
55186;SDS011;55457;52.002;5.464;2024-01-30T13:01:56;8.98;;;2.17;;
55186;SDS011;55457;52.002;5.464;2024-01-30T13:04:22;4.60;;;1.80;;
55186;SDS011;55457;52.002;5.464;2024-01-30T13:06:48;6.07;;;1.90;;
55186;SDS011;55457;52.002;5.464;2024-01-30T13:09:13;17.75;;;1.90;;
55186;SDS011;55457;52.002;5.464;2024-01-30T13:11:38;5.45;;;2.10;;
55186;SDS011;55457;52.002;5.464;2024-01-30T13:14:04;8.60;;;2.30;;
55186;SDS011;55457;52.002;5.464;2024-01-30T13:16:29;4.40;;;1.77;;
55186;SDS011;55457;52.002;5.464;2024-01-30T13:18:54;4.63;;;1.95;;
55186;SDS011;55457;52.002;5.464;2024-01-30T13:21:20;10.82;;;1.98;;
55186;SDS011;55457;52.002;5.464;2024-01-30T13:23:46;6.45;;;1.60;;
55186;SDS011;55457;52.002;5.464;2024-01-30T13:26:11;5.72;;;2.35;;
55186;SDS011;55457;52.002;5.464;2024-01-30T13:28:37;9.63;;;1.77;;
55186;SDS011;55457;52.002;5.464;2024-01-30T13:31:02;9.95;;;1.85;;
55186;SDS011;55457;52.002;5.464;2024-01-30T13:33:28;4.63;;;1.42;;
55186;SDS011;55457;52.002;5.464;2024-01-30T13:35:53;5.47;;;1.60;;
55186;SDS011;55457;52.002;5.464;2024-01-30T13:38:19;6.07;;;1.98;;
55186;SDS011;55457;52.002;5.464;2024-01-30T13:40:44;2.63;;;1.52;;
55186;SDS011;55457;52.002;5.464;2024-01-30T13:43:09;2.50;;;1.60;;
55186;SDS011;55457;52.002;5.464;2024-01-30T13:45:34;3.53;;;1.60;;
55186;SDS011;55457;52.002;5.464;2024-01-30T13:48:00;3.63;;;1.20;;
55186;SDS011;55457;52.002;5.464;2024-01-30T13:50:26;1.85;;;1.15;;
55186;SDS011;55457;52.002;5.464;2024-01-30T13:52:51;8.63;;;1.55;;
55186;SDS011;55457;52.002;5.464;2024-01-30T13:55:16;6.07;;;2.40;;
55186;SDS011;55457;52.002;5.464;2024-01-30T13:57:42;6.85;;;1.45;;
55186;SDS011;55457;52.002;5.464;2024-01-30T14:00:08;2.67;;;1.10;;
55186;SDS011;55457;52.002;5.464;2024-01-30T14:02:34;6.30;;;1.13;;
55186;SDS011;55457;52.002;5.464;2024-01-30T14:04:59;1.75;;;0.90;;
55186;SDS011;55457;52.002;5.464;2024-01-30T14:07:24;3.35;;;1.20;;
55186;SDS011;55457;52.002;5.464;2024-01-30T14:09:50;3.85;;;1.30;;
55186;SDS011;55457;52.002;5.464;2024-01-30T14:12:15;1.77;;;1.20;;
55186;SDS011;55457;52.002;5.464;2024-01-30T14:14:40;4.75;;;1.65;;
55186;SDS011;55457;52.002;5.464;2024-01-30T14:17:06;2.50;;;0.95;;
55186;SDS011;55457;52.002;5.464;2024-01-30T14:19:32;2.47;;;1.02;;
55186;SDS011;55457;52.002;5.464;2024-01-30T14:21:59;2.22;;;1.10;;
55186;SDS011;55457;52.002;5.464;2024-01-30T14:24:24;3.83;;;0.80;;
55186;SDS011;55457;52.002;5.464;2024-01-30T14:26:49;2.80;;;0.93;;
55186;SDS011;55457;52.002;5.464;2024-01-30T14:29:15;3.30;;;1.08;;
55186;SDS011;55457;52.002;5.464;2024-01-30T14:31:40;3.80;;;1.10;;
55186;SDS011;55457;52.002;5.464;2024-01-30T14:34:05;3.55;;;0.80;;
55186;SDS011;55457;52.002;5.464;2024-01-30T14:36:31;2.25;;;1.38;;
55186;SDS011;55457;52.002;5.464;2024-01-30T14:38:56;3.20;;;0.75;;
55186;SDS011;55457;52.002;5.464;2024-01-30T14:41:21;4.82;;;1.10;;
55186;SDS011;55457;52.002;5.464;2024-01-30T14:43:47;4.32;;;1.10;;